sensor_id;sensor_type;location;lat;lon;timestamp;P1;durP1;ratioP1;P2;durP2;ratioP2
21513;SDS011;10918;48.102;11.636;2022-09-29T00:00:09;1.10;;;1.00;;
21513;SDS011;10918;48.102;11.636;2022-09-29T00:02:35;1.35;;;1.17;;
21513;SDS011;10918;48.102;11.636;2022-09-29T00:05:01;1.40;;;1.00;;
21513;SDS011;10918;48.102;11.636;2022-09-29T00:07:29;1.70;;;1.20;;
21513;SDS011;10918;48.102;11.636;2022-09-29T00:09:56;1.95;;;0.90;;
21513;SDS011;10918;48.102;11.636;2022-09-29T00:12:22;1.10;;;1.00;;
21513;SDS011;10918;48.102;11.636;2022-09-29T00:14:48;1.02;;;0.93;;
21513;SDS011;10918;48.102;11.636;2022-09-29T00:17:17;1.38;;;1.27;;
21513;SDS011;10918;48.102;11.636;2022-09-29T00:19:43;1.70;;;1.13;;
21513;SDS011;10918;48.102;11.636;2022-09-29T00:22:14;1.40;;;1.13;;
21513;SDS011;10918;48.102;11.636;2022-09-29T00:24:40;1.80;;;1.20;;
21513;SDS011;10918;48.102;11.636;2022-09-29T00:27:07;2.03;;;1.17;;
21513;SDS011;10918;48.102;11.636;2022-09-29T00:29:32;1.40;;;1.30;;
21513;SDS011;10918;48.102;11.636;2022-09-29T00:31:58;2.58;;;1.13;;
21513;SDS011;10918;48.102;11.636;2022-09-29T00:34:25;3.58;;;1.27;;
21513;SDS011;10918;48.102;11.636;2022-09-29T00:36:51;2.17;;;1.20;;
21513;SDS011;10918;48.102;11.636;2022-09-29T00:39:17;1.60;;;1.08;;
21513;SDS011;10918;48.102;11.636;2022-09-29T00:41:43;3.00;;;1.65;;
21513;SDS011;10918;48.102;11.636;2022-09-29T00:51:39;2.47;;;1.27;;
21513;SDS011;10918;48.102;11.636;2022-09-29T00:54:08;2.15;;;1.98;;
21513;SDS011;10918;48.102;11.636;2022-09-29T00:56:35;3.88;;;2.88;;
21513;SDS011;10918;48.102;11.636;2022-09-29T00:59:03;2.42;;;1.70;;
21513;SDS011;10918;48.102;11.636;2022-09-29T01:01:31;3.13;;;1.52;;
21513;SDS011;10918;48.102;11.636;2022-09-29T01:04:02;3.53;;;1.90;;
21513;SDS011;10918;48.102;11.636;2022-09-29T01:06:34;2.10;;;1.70;;
21513;SDS011;10918;48.102;11.636;2022-09-29T01:09:03;1.65;;;1.17;;
21513;SDS011;10918;48.102;11.636;2022-09-29T01:11:29;1.58;;;1.27;;
21513;SDS011;10918;48.102;11.636;2022-09-29T01:13:56;2.03;;;1.13;;
21513;SDS011;10918;48.102;11.636;2022-09-29T01:16:27;2.33;;;1.27;;
21513;SDS011;10918;48.102;11.636;2022-09-29T01:18:53;2.53;;;1.58;;
21513;SDS011;10918;48.102;11.636;2022-09-29T01:23:57;1.38;;;1.27;;
21513;SDS011;10918;48.102;11.636;2022-09-29T01:41:43;2.83;;;1.30;;
21513;SDS011;10918;48.102;11.636;2022-09-29T01:46:47;2.15;;;1.33;;
21513;SDS011;10918;48.102;11.636;2022-09-29T01:49:15;2.17;;;1.20;;
21513;SDS011;10918;48.102;11.636;2022-09-29T01:51:53;1.50;;;1.40;;
21513;SDS011;10918;48.102;11.636;2022-09-29T01:54:24;2.10;;;1.50;;
21513;SDS011;10918;48.102;11.636;2022-09-29T01:57:07;2.75;;;1.60;;
21513;SDS011;10918;48.102;11.636;2022-09-29T01:59:44;1.55;;;1.45;;
21513;SDS011;10918;48.102;11.636;2022-09-29T02:02:14;1.45;;;1.35;;
21513;SDS011;10918;48.102;11.636;2022-09-29T02:04:43;1.73;;;1.42;;
21513;SDS011;10918;48.102;11.636;2022-09-29T02:07:13;2.13;;;1.73;;
21513;SDS011;10918;48.102;11.636;2022-09-29T02:09:41;2.92;;;1.70;;
21513;SDS011;10918;48.102;11.636;2022-09-29T02:12:09;1.58;;;1.48;;
21513;SDS011;10918;48.102;11.636;2022-09-29T02:14:42;2.17;;;1.75;;
21513;SDS011;10918;48.102;11.636;2022-09-29T02:17:19;2.42;;;1.95;;
21513;SDS011;10918;48.102;11.636;2022-09-29T02:19:47;3.05;;;1.65;;
21513;SDS011;10918;48.102;11.636;2022-09-29T02:22:13;1.67;;;1.58;;
21513;SDS011;10918;48.102;11.636;2022-09-29T02:24:40;1.95;;;1.70;;
21513;SDS011;10918;48.102;11.636;2022-09-29T02:27:06;1.80;;;1.70;;
21513;SDS011;10918;48.102;11.636;2022-09-29T02:29:33;1.80;;;1.60;;
21513;SDS011;10918;48.102;11.636;2022-09-29T02:31:59;2.20;;;1.75;;
21513;SDS011;10918;48.102;11.636;2022-09-29T02:34:27;3.33;;;1.55;;
21513;SDS011;10918;48.102;11.636;2022-09-29T02:41:56;2.58;;;2.38;;
21513;SDS011;10918;48.102;11.636;2022-09-29T02:47:25;2.13;;;1.70;;
21513;SDS011;10918;48.102;11.636;2022-09-29T02:56:07;2.47;;;2.10;;
21513;SDS011;10918;48.102;11.636;2022-09-29T02:58:14;2.30;;;2.10;;
21513;SDS011;10918;48.102;11.636;2022-09-29T03:00:43;3.00;;;2.15;;
21513;SDS011;10918;48.102;11.636;2022-09-29T03:03:09;2.45;;;2.08;;
21513;SDS011;10918;48.102;11.636;2022-09-29T03:05:36;2.53;;;2.00;;
21513;SDS011;10918;48.102;11.636;2022-09-29T03:08:02;2.58;;;2.22;;
21513;SDS011;10918;48.102;11.636;2022-09-29T03:28:38;1.92;;;1.65;;
21513;SDS011;10918;48.102;11.636;2022-09-29T03:31:08;1.90;;;1.80;;
21513;SDS011;10918;48.102;11.636;2022-09-29T03:33:37;2.58;;;1.90;;
21513;SDS011;10918;48.102;11.636;2022-09-29T03:36:04;2.40;;;2.00;;
21513;SDS011;10918;48.102;11.636;2022-09-29T03:38:31;2.30;;;2.10;;
21513;SDS011;10918;48.102;11.636;2022-09-29T03:40:57;2.17;;;2.00;;
21513;SDS011;10918;48.102;11.636;2022-09-29T03:43:24;4.05;;;1.90;;
21513;SDS011;10918;48.102;11.636;2022-09-29T03:45:50;2.35;;;2.15;;
21513;SDS011;10918;48.102;11.636;2022-09-29T03:48:17;2.03;;;1.83;;
21513;SDS011;10918;48.102;11.636;2022-09-29T03:50:43;3.13;;;2.15;;
21513;SDS011;10918;48.102;11.636;2022-09-29T03:53:09;3.47;;;1.90;;
21513;SDS011;10918;48.102;11.636;2022-09-29T03:55:35;2.35;;;1.92;;
21513;SDS011;10918;48.102;11.636;2022-09-29T03:58:01;3.25;;;1.90;;
21513;SDS011;10918;48.102;11.636;2022-09-29T04:00:27;2.47;;;2.28;;
21513;SDS011;10918;48.102;11.636;2022-09-29T04:02:53;2.65;;;2.45;;
21513;SDS011;10918;48.102;11.636;2022-09-29T04:05:20;2.45;;;2.25;;
21513;SDS011;10918;48.102;11.636;2022-09-29T04:07:46;3.03;;;2.75;;
21513;SDS011;10918;48.102;11.636;2022-09-29T04:10:12;5.50;;;2.92;;
21513;SDS011;10918;48.102;11.636;2022-09-29T04:12:38;2.67;;;2.42;;
21513;SDS011;10918;48.102;11.636;2022-09-29T04:15:04;2.45;;;2.25;;
21513;SDS011;10918;48.102;11.636;2022-09-29T04:17:30;3.42;;;2.53;;
21513;SDS011;10918;48.102;11.636;2022-09-29T04:19:56;2.78;;;2.40;;
21513;SDS011;10918;48.102;11.636;2022-09-29T04:22:22;3.05;;;2.70;;
21513;SDS011;10918;48.102;11.636;2022-09-29T04:24:48;2.47;;;2.28;;
21513;SDS011;10918;48.102;11.636;2022-09-29T04:27:16;4.93;;;2.13;;
21513;SDS011;10918;48.102;11.636;2022-09-29T04:29:42;2.90;;;2.60;;
21513;SDS011;10918;48.102;11.636;2022-09-29T04:32:08;2.85;;;2.65;;
21513;SDS011;10918;48.102;11.636;2022-09-29T04:34:34;3.78;;;2.80;;
21513;SDS011;10918;48.102;11.636;2022-09-29T04:37:01;3.30;;;2.97;;
21513;SDS011;10918;48.102;11.636;2022-09-29T04:39:27;4.65;;;3.25;;
21513;SDS011;10918;48.102;11.636;2022-09-29T04:41:53;4.22;;;3.83;;
21513;SDS011;10918;48.102;11.636;2022-09-29T04:44:19;3.30;;;2.95;;
21513;SDS011;10918;48.102;11.636;2022-09-29T04:46:48;2.70;;;2.50;;
21513;SDS011;10918;48.102;11.636;2022-09-29T04:49:15;2.90;;;2.63;;
21513;SDS011;10918;48.102;11.636;2022-09-29T04:51:41;3.13;;;2.83;;
21513;SDS011;10918;48.102;11.636;2022-09-29T04:54:07;2.80;;;2.60;;
21513;SDS011;10918;48.102;11.636;2022-09-29T06:01:23;2.90;;;2.50;;
21513;SDS011;10918;48.102;11.636;2022-09-29T06:03:49;2.42;;;2.22;;
21513;SDS011;10918;48.102;11.636;2022-09-29T06:06:18;3.13;;;2.38;;
21513;SDS011;10918;48.102;11.636;2022-09-29T06:08:45;2.88;;;2.33;;
21513;SDS011;10918;48.102;11.636;2022-09-29T06:11:13;3.03;;;2.30;;
21513;SDS011;10918;48.102;11.636;2022-09-29T06:37:58;2.30;;;1.77;;
21513;SDS011;10918;48.102;11.636;2022-09-29T06:40:26;3.30;;;2.08;;
21513;SDS011;10918;48.102;11.636;2022-09-29T06:42:52;4.38;;;1.75;;
21513;SDS011;10918;48.102;11.636;2022-09-29T06:45:18;2.38;;;1.80;;
21513;SDS011;10918;48.102;11.636;2022-09-29T06:47:44;2.97;;;1.95;;
21513;SDS011;10918;48.102;11.636;2022-09-29T06:50:10;2.78;;;1.90;;
21513;SDS011;10918;48.102;11.636;2022-09-29T06:52:36;4.65;;;2.35;;
21513;SDS011;10918;48.102;11.636;2022-09-29T06:55:02;4.28;;;2.15;;
21513;SDS011;10918;48.102;11.636;2022-09-29T06:57:29;2.95;;;2.25;;
21513;SDS011;10918;48.102;11.636;2022-09-29T06:59:55;5.65;;;2.47;;
21513;SDS011;10918;48.102;11.636;2022-09-29T07:02:21;5.07;;;1.98;;
21513;SDS011;10918;48.102;11.636;2022-09-29T07:04:47;2.92;;;2.10;;
21513;SDS011;10918;48.102;11.636;2022-09-29T07:07:13;3.10;;;2.00;;
21513;SDS011;10918;48.102;11.636;2022-09-29T07:09:39;2.80;;;2.00;;
21513;SDS011;10918;48.102;11.636;2022-09-29T07:12:06;2.65;;;1.95;;
21513;SDS011;10918;48.102;11.636;2022-09-29T07:14:32;2.72;;;1.92;;
21513;SDS011;10918;48.102;11.636;2022-09-29T07:16:59;5.28;;;2.25;;
21513;SDS011;10918;48.102;11.636;2022-09-29T07:19:25;4.32;;;1.80;;
21513;SDS011;10918;48.102;11.636;2022-09-29T07:21:51;3.38;;;1.73;;
21513;SDS011;10918;48.102;11.636;2022-09-29T07:24:17;2.38;;;1.80;;
21513;SDS011;10918;48.102;11.636;2022-09-29T07:26:43;1.67;;;1.45;;
21513;SDS011;10918;48.102;11.636;2022-09-29T07:29:10;2.92;;;1.88;;
21513;SDS011;10918;48.102;11.636;2022-09-29T07:31:36;3.15;;;2.55;;
21513;SDS011;10918;48.102;11.636;2022-09-29T07:34:04;2.72;;;2.00;;
21513;SDS011;10918;48.102;11.636;2022-09-29T07:36:30;4.65;;;3.60;;
21513;SDS011;10918;48.102;11.636;2022-09-29T07:38:57;2.10;;;1.52;;
21513;SDS011;10918;48.102;11.636;2022-09-29T07:41:23;1.55;;;1.23;;
21513;SDS011;10918;48.102;11.636;2022-09-29T07:43:49;2.33;;;1.58;;
21513;SDS011;10918;48.102;11.636;2022-09-29T07:46:15;3.30;;;1.23;;
21513;SDS011;10918;48.102;11.636;2022-09-29T07:49:03;1.70;;;1.35;;
21513;SDS011;10918;48.102;11.636;2022-09-29T07:51:30;2.17;;;1.50;;
21513;SDS011;10918;48.102;11.636;2022-09-29T07:53:59;1.80;;;1.30;;
21513;SDS011;10918;48.102;11.636;2022-09-29T07:56:36;2.85;;;1.27;;
21513;SDS011;10918;48.102;11.636;2022-09-29T07:59:02;2.17;;;1.80;;
21513;SDS011;10918;48.102;11.636;2022-09-29T08:01:29;1.75;;;1.65;;
21513;SDS011;10918;48.102;11.636;2022-09-29T08:03:55;1.90;;;1.30;;
21513;SDS011;10918;48.102;11.636;2022-09-29T08:06:37;1.80;;;1.50;;
21513;SDS011;10918;48.102;11.636;2022-09-29T08:09:04;3.47;;;1.10;;
21513;SDS011;10918;48.102;11.636;2022-09-29T08:11:31;3.45;;;1.20;;
21513;SDS011;10918;48.102;11.636;2022-09-29T08:13:57;2.95;;;1.23;;
21513;SDS011;10918;48.102;11.636;2022-09-29T08:16:23;2.13;;;1.15;;
21513;SDS011;10918;48.102;11.636;2022-09-29T08:18:49;0.93;;;0.80;;
21513;SDS011;10918;48.102;11.636;2022-09-29T19:20:17;7.35;;;6.35;;
21513;SDS011;10918;48.102;11.636;2022-09-29T19:22:43;7.82;;;7.03;;
21513;SDS011;10918;48.102;11.636;2022-09-29T19:25:11;8.05;;;7.25;;
21513;SDS011;10918;48.102;11.636;2022-09-29T19:27:38;7.65;;;6.95;;
21513;SDS011;10918;48.102;11.636;2022-09-29T19:30:04;7.00;;;6.30;;
21513;SDS011;10918;48.102;11.636;2022-09-29T19:32:30;7.28;;;6.47;;
21513;SDS011;10918;48.102;11.636;2022-09-29T19:34:57;7.25;;;6.60;;
21513;SDS011;10918;48.102;11.636;2022-09-29T19:37:23;7.28;;;6.57;;
21513;SDS011;10918;48.102;11.636;2022-09-29T19:39:49;8.10;;;7.35;;
21513;SDS011;10918;48.102;11.636;2022-09-29T19:42:15;6.57;;;5.97;;
21513;SDS011;10918;48.102;11.636;2022-09-29T19:55:08;8.15;;;6.05;;
21513;SDS011;10918;48.102;11.636;2022-09-29T19:57:37;6.32;;;5.72;;
21513;SDS011;10918;48.102;11.636;2022-09-29T20:00:16;5.78;;;5.25;;
21513;SDS011;10918;48.102;11.636;2022-09-29T20:02:43;5.95;;;5.35;;
21513;SDS011;10918;48.102;11.636;2022-09-29T20:05:09;6.95;;;5.50;;
21513;SDS011;10918;48.102;11.636;2022-09-29T20:07:36;6.28;;;5.72;;
21513;SDS011;10918;48.102;11.636;2022-09-29T20:10:04;6.38;;;5.45;;
21513;SDS011;10918;48.102;11.636;2022-09-29T20:12:31;6.47;;;5.63;;
21513;SDS011;10918;48.102;11.636;2022-09-29T20:14:57;6.28;;;5.50;;
21513;SDS011;10918;48.102;11.636;2022-09-29T21:36:25;9.65;;;7.97;;
21513;SDS011;10918;48.102;11.636;2022-09-29T21:38:51;10.23;;;8.75;;
21513;SDS011;10918;48.102;11.636;2022-09-29T21:41:18;8.65;;;7.65;;
21513;SDS011;10918;48.102;11.636;2022-09-29T21:43:45;8.93;;;7.40;;
21513;SDS011;10918;48.102;11.636;2022-09-29T23:21:01;8.52;;;7.45;;
21513;SDS011;10918;48.102;11.636;2022-09-29T23:23:28;12.10;;;7.70;;
21513;SDS011;10918;48.102;11.636;2022-09-29T23:25:56;9.48;;;7.78;;
21513;SDS011;10918;48.102;11.636;2022-09-29T23:28:22;8.50;;;7.60;;
21513;SDS011;10918;48.102;11.636;2022-09-29T23:30:48;8.68;;;7.75;;
21513;SDS011;10918;48.102;11.636;2022-09-29T23:33:14;9.05;;;8.15;;
21513;SDS011;10918;48.102;11.636;2022-09-29T23:35:40;9.27;;;8.18;;
21513;SDS011;10918;48.102;11.636;2022-09-29T23:38:07;8.57;;;7.68;;
21513;SDS011;10918;48.102;11.636;2022-09-29T23:40:52;10.38;;;7.43;;
21513;SDS011;10918;48.102;11.636;2022-09-29T23:43:18;7.93;;;7.07;;
21513;SDS011;10918;48.102;11.636;2022-09-29T23:45:44;8.70;;;7.70;;
21513;SDS011;10918;48.102;11.636;2022-09-29T23:48:10;8.73;;;7.82;;
21513;SDS011;10918;48.102;11.636;2022-09-29T23:50:36;8.85;;;7.90;;
21513;SDS011;10918;48.102;11.636;2022-09-29T23:53:02;8.00;;;6.93;;
21513;SDS011;10918;48.102;11.636;2022-09-29T23:55:29;7.10;;;6.40;;
21513;SDS011;10918;48.102;11.636;2022-09-29T23:57:55;8.38;;;7.35;;
